createdAt,value
2023-04-20T05:01:02.178Z,6.13
2023-04-20T05:03:28.922Z,6.30
2023-04-20T05:05:56.557Z,6.30
2023-04-20T05:08:24.467Z,5.88
2023-04-20T05:10:51.738Z,6.68
2023-04-20T05:13:18.466Z,7.07
2023-04-20T05:15:45.638Z,6.43
2023-04-20T05:18:12.107Z,7.05
2023-04-20T05:20:39.277Z,7.28
2023-04-20T05:23:05.889Z,6.68
2023-04-20T05:25:32.853Z,8.55
2023-04-20T05:28:00.157Z,7.93
2023-04-20T05:30:26.985Z,7.07
2023-04-20T05:32:54.146Z,7.60
2023-04-20T05:35:21.447Z,7.15
2023-04-20T05:37:49.073Z,8.30
2023-04-20T05:40:15.848Z,9.13
2023-04-20T05:42:43.294Z,7.82
2023-04-20T05:45:10.653Z,8.18
2023-04-20T05:47:37.918Z,7.05
2023-04-20T05:50:05.917Z,8.00
2023-04-20T05:52:33.215Z,7.93
2023-04-20T05:55:00.085Z,7.20
2023-04-20T05:57:27.801Z,7.63
2023-04-20T05:59:56.117Z,8.43
2023-04-20T06:02:23.347Z,8.10
2023-04-20T06:04:50.351Z,8.40
2023-04-20T06:07:17.955Z,8.25
2023-04-20T06:09:44.797Z,8.32
2023-04-20T06:12:13.534Z,9.00
2023-04-20T06:14:40.543Z,8.45
2023-04-20T06:17:08.765Z,8.13
2023-04-20T06:19:35.388Z,8.07
2023-04-20T06:22:07.820Z,9.27
2023-04-20T06:24:35.413Z,8.60
2023-04-20T06:27:02.836Z,8.50
2023-04-20T06:29:29.366Z,7.88
2023-04-20T06:31:56.253Z,8.85
2023-04-20T06:34:22.792Z,8.10
2023-04-20T06:36:49.947Z,8.68
2023-04-20T06:39:17.677Z,9.52
2023-04-20T06:41:44.820Z,8.63
2023-04-20T06:44:13.976Z,8.65
2023-04-20T06:46:40.892Z,9.25
2023-04-20T06:49:07.466Z,8.98
2023-04-20T06:51:35.013Z,9.23
2023-04-20T06:54:01.613Z,8.40
2023-04-20T06:56:28.758Z,9.70
2023-04-20T06:58:55.382Z,9.20
2023-04-20T07:01:22.561Z,8.23
2023-04-20T07:03:49.503Z,8.27
2023-04-20T07:06:17.279Z,8.52
2023-04-20T07:08:43.896Z,9.18
2023-04-20T07:11:11.155Z,8.95
2023-04-20T07:13:37.782Z,8.80
2023-04-20T07:16:05.276Z,8.98
2023-04-20T07:18:33.983Z,8.85
2023-04-20T07:21:02.690Z,8.90
2023-04-20T07:23:29.250Z,8.57
2023-04-20T07:25:56.199Z,9.18
2023-04-20T07:28:22.778Z,8.82
2023-04-20T07:30:49.642Z,8.60
2023-04-20T07:33:16.227Z,8.55
2023-04-20T07:35:43.236Z,9.23
2023-04-20T07:38:10.736Z,8.93
2023-04-20T07:40:37.585Z,9.30
2023-04-20T07:43:04.145Z,8.50
2023-04-20T07:45:30.788Z,8.73
2023-04-20T07:47:57.577Z,9.18
2023-04-20T07:50:28.005Z,8.82
2023-04-20T07:52:54.756Z,8.48
2023-04-20T07:55:22.123Z,9.52
2023-04-20T07:57:48.731Z,7.53
2023-04-20T08:00:16.307Z,8.57
2023-04-20T08:02:45.293Z,7.60
2023-04-20T08:05:12.612Z,8.35
2023-04-20T08:07:40.311Z,8.68
2023-04-20T08:10:08.461Z,8.00
2023-04-20T08:12:36.021Z,7.80
2023-04-20T08:15:06.389Z,8.25
2023-04-20T08:17:34.160Z,7.38
2023-04-20T08:20:01.596Z,8.38
2023-04-20T08:22:30.164Z,8.48
2023-04-20T08:24:57.892Z,7.78
2023-04-20T08:27:26.537Z,7.38
2023-04-20T08:29:53.114Z,8.23
2023-04-20T08:32:23.195Z,7.55
2023-04-20T08:37:18.815Z,7.72
2023-04-20T08:39:46.431Z,7.13
2023-04-20T08:42:13.161Z,8.50
2023-04-20T08:44:40.764Z,8.05
2023-04-20T08:47:10.321Z,7.63
2023-04-20T08:49:39.444Z,7.80
2023-04-20T08:52:10.995Z,7.55
2023-04-20T08:54:45.854Z,8.25
2023-04-20T08:57:20.475Z,6.93
2023-04-20T08:59:47.565Z,8.30
2023-04-20T09:02:14.575Z,7.85
2023-04-20T09:04:41.940Z,7.30
2023-04-20T09:07:18.824Z,7.88
2023-04-20T09:09:59.717Z,7.80
2023-04-20T09:12:27.985Z,7.85
2023-04-20T09:14:56.319Z,7.78
2023-04-20T09:17:37.218Z,7.32
2023-04-20T09:20:05.374Z,7.70
2023-04-20T09:22:37.090Z,7.85
2023-04-20T09:25:18.084Z,7.47
2023-04-20T09:28:04.853Z,6.88
2023-04-20T09:31:05.617Z,7.35
2023-04-20T09:33:40.544Z,7.15
2023-04-20T09:36:08.284Z,6.45
2023-04-20T09:38:40.667Z,6.65
2023-04-20T09:41:27.190Z,6.75
2023-04-20T09:43:54.212Z,6.13
2023-04-20T09:46:21.779Z,6.70
2023-04-20T09:48:49.185Z,7.30
2023-04-20T09:51:16.906Z,5.88
2023-04-20T09:53:46.086Z,6.05
2023-04-20T09:56:15.954Z,5.88
2023-04-20T10:01:54.755Z,6.20
2023-04-20T10:04:24.414Z,5.80
2023-04-20T10:06:55.144Z,6.10
2023-04-20T10:09:26.905Z,5.38
2023-04-20T10:12:06.442Z,5.85
2023-04-20T10:14:33.087Z,6.07
2023-04-20T10:17:09.322Z,6.00
2023-04-20T10:19:40.517Z,6.28
2023-04-20T10:22:42.073Z,6.10
2023-04-20T10:25:21.748Z,6.20
2023-04-20T10:28:08.983Z,6.00
2023-04-20T10:30:51.927Z,6.32
2023-04-20T10:33:19.865Z,5.88
2023-04-20T10:35:51.179Z,5.80
2023-04-20T10:38:48.354Z,5.88
2023-04-20T10:41:18.854Z,5.60
2023-04-20T10:43:45.883Z,5.85
2023-04-20T10:46:20.420Z,5.78
2023-04-20T10:49:02.777Z,6.25
2023-04-20T10:51:34.686Z,5.70
2023-04-20T10:54:06.752Z,5.78
2023-04-20T10:56:42.333Z,5.55
2023-04-20T10:59:10.160Z,6.05
2023-04-20T11:01:41.684Z,5.78
2023-04-20T11:04:10.712Z,6.10
2023-04-20T11:06:42.406Z,6.05
2023-04-20T11:09:26.718Z,6.47
2023-04-20T11:12:05.879Z,6.18
2023-04-20T11:14:34.851Z,6.40
2023-04-20T11:17:02.275Z,5.60
2023-04-20T11:19:34.296Z,5.72
2023-04-20T11:22:02.920Z,5.93
2023-04-20T11:24:31.871Z,5.90
2023-04-20T11:26:59.217Z,5.72
2023-04-20T11:29:36.011Z,5.63
2023-04-20T11:32:09.222Z,5.60
2023-04-20T11:34:38.348Z,5.47
2023-04-20T11:37:07.703Z,5.95
2023-04-20T11:39:34.545Z,5.80
2023-04-20T11:42:02.384Z,5.20
2023-04-20T11:44:29.221Z,5.05
2023-04-20T11:47:00.542Z,5.32
2023-04-20T11:49:33.407Z,5.65
2023-04-20T11:52:08.452Z,5.63
2023-04-20T11:54:35.517Z,6.55
2023-04-20T11:57:03.340Z,5.40
2023-04-20T11:59:30.450Z,5.07
2023-04-20T12:01:58.120Z,5.68
2023-04-20T12:04:41.451Z,5.45
2023-04-20T12:07:08.982Z,5.13
2023-04-20T12:09:37.268Z,5.30
2023-04-20T12:12:05.937Z,5.55
2023-04-20T12:14:36.418Z,5.80
2023-04-20T12:17:05.241Z,5.38
2023-04-20T12:19:32.027Z,5.05
2023-04-20T12:21:59.541Z,5.32
2023-04-20T12:24:26.364Z,5.28
2023-04-20T12:26:53.540Z,5.32
2023-04-20T12:29:20.806Z,5.20
2023-04-20T12:31:48.332Z,5.88
2023-04-20T12:34:15.001Z,5.10
2023-04-20T12:36:42.256Z,4.72
2023-04-20T12:39:08.886Z,4.55
2023-04-20T12:41:36.460Z,4.50
2023-04-20T12:44:06.583Z,4.55
2023-04-20T12:46:35.098Z,4.70
2023-04-20T12:49:01.745Z,4.65
2023-04-20T12:51:29.016Z,4.40
2023-04-20T12:53:55.581Z,4.47
2023-04-20T12:56:22.906Z,4.32
2023-04-20T12:58:49.474Z,4.68
2023-04-20T13:01:16.718Z,4.45
2023-04-20T13:03:43.724Z,4.68
2023-04-20T13:06:14.268Z,4.70
2023-04-20T13:08:41.321Z,4.57
2023-04-20T13:11:12.282Z,4.05
2023-04-20T13:13:38.956Z,4.28
2023-04-20T13:16:06.390Z,3.90
2023-04-20T13:18:33.665Z,3.85
2023-04-20T13:21:00.981Z,3.88
2023-04-20T13:23:27.520Z,4.45
2023-04-20T13:25:54.834Z,4.45
2023-04-20T13:28:21.438Z,4.05
2023-04-20T13:30:48.628Z,3.75
2023-04-20T13:33:15.344Z,3.90
2023-04-20T13:35:43.295Z,6.22
2023-04-20T13:38:09.892Z,3.92
2023-04-20T13:40:36.998Z,4.22
2023-04-20T13:43:04.671Z,4.50
2023-04-20T13:45:32.174Z,4.85
2023-04-20T13:47:59.001Z,4.13
2023-04-20T13:50:26.014Z,3.65
2023-04-20T13:52:52.567Z,3.40
2023-04-20T13:55:20.926Z,3.67
2023-04-20T13:57:47.660Z,3.92
2023-04-20T14:00:14.751Z,3.90
2023-04-20T14:02:41.503Z,3.30
2023-04-20T14:05:09.686Z,3.50
2023-04-20T14:07:36.237Z,3.70
2023-04-20T14:10:03.247Z,3.33
2023-04-20T14:12:30.462Z,3.70
2023-04-20T14:14:58.448Z,3.65
2023-04-20T14:17:25.522Z,3.70
2023-04-20T14:19:52.894Z,3.67
2023-04-20T14:22:20.115Z,3.40
2023-04-20T14:24:47.576Z,3.72
2023-04-20T14:27:14.971Z,3.40
2023-04-20T14:29:41.904Z,3.63
2023-04-20T14:32:08.924Z,3.65
2023-04-20T14:34:35.438Z,4.07
2023-04-20T14:37:02.573Z,3.58
2023-04-20T14:39:29.055Z,3.83
2023-04-20T14:41:56.511Z,4.10
2023-04-20T14:44:23.029Z,3.90
2023-04-20T14:46:50.303Z,3.33
2023-04-20T14:49:16.859Z,3.10
2023-04-20T14:51:44.085Z,3.40
2023-04-20T14:54:10.944Z,3.90
2023-04-20T14:56:38.154Z,4.05
2023-04-20T14:59:04.838Z,4.63
2023-04-20T15:01:32.066Z,4.05
2023-04-20T15:03:58.763Z,4.55
2023-04-20T15:06:26.227Z,4.55
2023-04-20T15:08:54.508Z,4.50
2023-04-20T15:11:21.727Z,4.80
2023-04-20T15:13:49.436Z,5.20
2023-04-20T15:16:16.625Z,5.05
2023-04-20T15:18:43.390Z,5.22
2023-04-20T15:21:11.196Z,5.97
2023-04-20T15:23:37.942Z,5.40
2023-04-20T15:26:05.314Z,5.18
2023-04-20T15:28:32.031Z,5.47
2023-04-20T15:31:00.490Z,5.75
2023-04-20T15:33:27.042Z,5.63
2023-04-20T15:35:54.366Z,6.28
2023-04-20T15:38:20.917Z,6.50
2023-04-20T15:40:49.458Z,6.20
2023-04-20T15:43:16.300Z,6.78
2023-04-20T15:45:45.026Z,6.53
2023-04-20T15:48:11.794Z,7.00
2023-04-20T15:50:39.935Z,6.32
2023-04-20T15:53:07.328Z,6.90
2023-04-20T15:55:38.357Z,6.43
2023-04-20T15:58:05.629Z,6.47
2023-04-20T16:00:32.376Z,6.88
2023-04-20T16:03:02.016Z,7.22
2023-04-20T16:07:57.291Z,7.45
2023-04-20T16:10:24.130Z,7.60
2023-04-20T16:12:51.885Z,8.98
2023-04-20T16:15:19.731Z,10.45
2023-04-20T16:17:48.195Z,8.32
2023-04-20T16:20:41.505Z,11.32
2023-04-20T16:23:08.574Z,8.80
2023-04-20T16:25:36.522Z,7.53
2023-04-20T16:28:06.618Z,7.43
2023-04-20T16:30:40.471Z,8.10
2023-04-20T16:35:53.688Z,8.75
2023-04-20T16:38:21.572Z,15.85
2023-04-20T16:40:48.915Z,10.35
2023-04-20T16:43:16.859Z,8.18
2023-04-20T16:45:46.198Z,9.85
2023-04-20T16:48:13.343Z,12.30
2023-04-20T16:50:42.190Z,9.05
2023-04-20T16:53:09.354Z,9.80
2023-04-20T16:55:36.555Z,9.13
2023-04-20T16:58:03.185Z,8.52
2023-04-20T17:00:31.864Z,9.63
2023-04-20T17:03:01.252Z,9.10
2023-04-20T17:05:28.716Z,9.77
2023-04-20T17:07:55.872Z,10.13
2023-04-20T17:10:23.375Z,10.98
2023-04-20T17:12:50.528Z,10.07
2023-04-20T17:15:17.387Z,9.20
2023-04-20T17:17:43.944Z,9.23
2023-04-20T17:20:13.003Z,8.93
2023-04-20T17:22:39.791Z,10.70
2023-04-20T17:25:08.124Z,9.90
2023-04-20T17:27:35.604Z,9.73
2023-04-20T17:30:03.514Z,9.70
2023-04-20T17:32:31.615Z,8.75
2023-04-20T17:35:02.283Z,8.82
2023-04-20T17:40:10.986Z,9.35
2023-04-20T17:45:19.142Z,11.05
2023-04-20T17:47:48.618Z,10.88
2023-04-20T17:50:17.263Z,11.30
2023-04-20T17:52:45.064Z,12.27
2023-04-20T17:55:12.697Z,11.85
2023-04-20T17:57:39.840Z,11.35
2023-04-20T18:00:09.782Z,12.90
2023-04-20T18:02:43.437Z,10.45
2023-04-20T18:05:10.863Z,11.60
2023-04-20T18:07:37.831Z,11.07
2023-04-20T18:10:07.236Z,10.80
2023-04-20T18:17:57.148Z,10.57
2023-04-20T18:20:25.144Z,10.30
2023-04-20T18:22:54.050Z,10.30
2023-04-20T18:28:04.368Z,11.18
2023-04-20T18:38:54.112Z,10.88
2023-04-20T18:41:48.058Z,11.35
2023-04-20T18:49:40.402Z,12.38
2023-04-20T18:54:49.045Z,11.95
2023-04-20T18:57:17.097Z,12.13
2023-04-20T18:59:44.089Z,11.15
2023-04-20T19:02:13.862Z,13.18
2023-04-20T19:04:41.326Z,12.20
2023-04-20T19:07:09.305Z,12.68
2023-04-20T19:09:43.221Z,13.23
2023-04-20T19:12:12.045Z,13.55
2023-04-20T19:14:38.785Z,13.27
2023-04-20T19:19:51.460Z,14.23
2023-04-20T19:22:26.004Z,13.13
2023-04-20T19:24:53.270Z,13.18
2023-04-20T19:27:23.619Z,14.32
2023-04-20T19:32:32.203Z,14.10
2023-04-20T19:35:01.070Z,15.27
2023-04-20T19:37:28.209Z,16.85
2023-04-20T19:39:57.573Z,14.65
2023-04-20T19:45:07.036Z,16.08
2023-04-20T19:47:41.755Z,16.92
2023-04-20T19:50:09.264Z,14.93
2023-04-20T19:52:59.540Z,16.35
2023-04-20T19:55:26.824Z,16.75
2023-04-20T19:58:01.099Z,17.77
2023-04-20T20:00:30.642Z,16.50
2023-04-20T20:02:57.758Z,17.35
2023-04-20T20:05:27.520Z,18.05
2023-04-20T20:10:36.121Z,19.48
2023-04-20T20:13:03.515Z,17.52
2023-04-20T20:15:30.641Z,18.13
2023-04-20T20:17:58.770Z,17.92
2023-04-20T20:20:31.162Z,19.42
2023-04-20T20:22:58.558Z,18.77
2023-04-20T20:25:27.008Z,17.30
2023-04-20T20:27:53.695Z,18.75
